sensor_id;sensor_type;location;lat;lon;timestamp;P1;durP1;ratioP1;P2;durP2;ratioP2
28836;SDS011;50669;50.982;11.022;2022-12-18T00:01:02;27.42;;;13.07;;
28836;SDS011;50669;50.982;11.022;2022-12-18T00:03:32;24.98;;;12.68;;
28836;SDS011;50669;50.982;11.022;2022-12-18T00:06:03;27.35;;;13.18;;
28836;SDS011;50669;50.982;11.022;2022-12-18T00:08:32;26.92;;;13.35;;
28836;SDS011;50669;50.982;11.022;2022-12-18T00:11:03;22.80;;;12.43;;
28836;SDS011;50669;50.982;11.022;2022-12-18T00:13:33;25.35;;;12.52;;
28836;SDS011;50669;50.982;11.022;2022-12-18T00:16:05;24.13;;;11.95;;
28836;SDS011;50669;50.982;11.022;2022-12-18T00:18:33;22.80;;;11.50;;
28836;SDS011;50669;50.982;11.022;2022-12-18T00:21:02;22.45;;;10.80;;
28836;SDS011;50669;50.982;11.022;2022-12-18T00:23:29;22.60;;;10.90;;
28836;SDS011;50669;50.982;11.022;2022-12-18T00:25:59;25.92;;;13.35;;
28836;SDS011;50669;50.982;11.022;2022-12-18T00:28:28;30.40;;;12.80;;
28836;SDS011;50669;50.982;11.022;2022-12-18T00:31:03;25.13;;;11.23;;
28836;SDS011;50669;50.982;11.022;2022-12-18T00:33:31;27.55;;;11.43;;
28836;SDS011;50669;50.982;11.022;2022-12-18T00:38:47;20.48;;;9.48;;
28836;SDS011;50669;50.982;11.022;2022-12-18T00:41:13;28.02;;;11.77;;
28836;SDS011;50669;50.982;11.022;2022-12-18T00:44:00;22.33;;;11.45;;
28836;SDS011;50669;50.982;11.022;2022-12-18T00:46:26;24.02;;;11.57;;
28836;SDS011;50669;50.982;11.022;2022-12-18T00:48:52;29.63;;;11.25;;
28836;SDS011;50669;50.982;11.022;2022-12-18T00:51:18;24.35;;;10.98;;
28836;SDS011;50669;50.982;11.022;2022-12-18T00:53:46;20.10;;;10.88;;
28836;SDS011;50669;50.982;11.022;2022-12-18T00:56:14;19.75;;;10.20;;
28836;SDS011;50669;50.982;11.022;2022-12-18T00:58:45;21.92;;;11.57;;
28836;SDS011;50669;50.982;11.022;2022-12-18T01:01:10;21.23;;;10.68;;
28836;SDS011;50669;50.982;11.022;2022-12-18T01:03:36;21.88;;;10.80;;
28836;SDS011;50669;50.982;11.022;2022-12-18T01:06:08;29.58;;;12.23;;
28836;SDS011;50669;50.982;11.022;2022-12-18T01:08:37;23.42;;;11.13;;
28836;SDS011;50669;50.982;11.022;2022-12-18T01:11:10;23.42;;;10.88;;
28836;SDS011;50669;50.982;11.022;2022-12-18T01:13:37;20.42;;;10.00;;
28836;SDS011;50669;50.982;11.022;2022-12-18T01:16:10;20.42;;;9.57;;
28836;SDS011;50669;50.982;11.022;2022-12-18T01:18:41;17.65;;;8.15;;
28836;SDS011;50669;50.982;11.022;2022-12-18T01:21:16;17.33;;;8.10;;
28836;SDS011;50669;50.982;11.022;2022-12-18T01:23:44;20.92;;;9.57;;
28836;SDS011;50669;50.982;11.022;2022-12-18T01:26:11;19.17;;;8.85;;
28836;SDS011;50669;50.982;11.022;2022-12-18T01:28:38;14.55;;;7.80;;
28836;SDS011;50669;50.982;11.022;2022-12-18T01:33:55;17.65;;;8.50;;
28836;SDS011;50669;50.982;11.022;2022-12-18T01:38:51;16.70;;;8.98;;
28836;SDS011;50669;50.982;11.022;2022-12-18T01:41:18;21.08;;;8.25;;
28836;SDS011;50669;50.982;11.022;2022-12-18T01:43:50;17.02;;;8.10;;
28836;SDS011;50669;50.982;11.022;2022-12-18T01:46:22;18.63;;;7.97;;
28836;SDS011;50669;50.982;11.022;2022-12-18T01:48:52;17.83;;;8.05;;
28836;SDS011;50669;50.982;11.022;2022-12-18T01:51:22;17.73;;;8.05;;
28836;SDS011;50669;50.982;11.022;2022-12-18T01:53:48;17.52;;;7.22;;
28836;SDS011;50669;50.982;11.022;2022-12-18T01:56:15;17.33;;;7.88;;
28836;SDS011;50669;50.982;11.022;2022-12-18T02:01:28;11.77;;;5.68;;
28836;SDS011;50669;50.982;11.022;2022-12-18T02:04:13;17.15;;;8.25;;
28836;SDS011;50669;50.982;11.022;2022-12-18T02:06:54;23.17;;;11.05;;
28836;SDS011;50669;50.982;11.022;2022-12-18T02:09:34;19.13;;;8.63;;
28836;SDS011;50669;50.982;11.022;2022-12-18T02:20:14;32.13;;;14.55;;
28836;SDS011;50669;50.982;11.022;2022-12-18T02:28:36;45.17;;;18.90;;
28836;SDS011;50669;50.982;11.022;2022-12-18T02:31:11;34.13;;;16.13;;
28836;SDS011;50669;50.982;11.022;2022-12-18T02:33:43;39.40;;;17.65;;
28836;SDS011;50669;50.982;11.022;2022-12-18T02:36:11;28.80;;;12.80;;
28836;SDS011;50669;50.982;11.022;2022-12-18T02:38:39;26.95;;;12.57;;
28836;SDS011;50669;50.982;11.022;2022-12-18T02:41:09;27.17;;;13.57;;
28836;SDS011;50669;50.982;11.022;2022-12-18T02:43:36;20.55;;;11.35;;
28836;SDS011;50669;50.982;11.022;2022-12-18T02:46:20;21.83;;;10.60;;
28836;SDS011;50669;50.982;11.022;2022-12-18T02:48:52;24.83;;;12.43;;
28836;SDS011;50669;50.982;11.022;2022-12-18T02:51:28;24.17;;;11.23;;
28836;SDS011;50669;50.982;11.022;2022-12-18T02:54:09;22.23;;;11.00;;
28836;SDS011;50669;50.982;11.022;2022-12-18T02:56:50;23.40;;;11.32;;
28836;SDS011;50669;50.982;11.022;2022-12-18T03:05:14;29.65;;;15.45;;
28836;SDS011;50669;50.982;11.022;2022-12-18T03:07:53;33.85;;;14.90;;
28836;SDS011;50669;50.982;11.022;2022-12-18T03:10:38;36.85;;;15.55;;
28836;SDS011;50669;50.982;11.022;2022-12-18T03:13:12;30.38;;;15.93;;
28836;SDS011;50669;50.982;11.022;2022-12-18T03:15:44;35.08;;;15.88;;
28836;SDS011;50669;50.982;11.022;2022-12-18T03:18:21;46.13;;;19.77;;
28836;SDS011;50669;50.982;11.022;2022-12-18T03:20:58;45.20;;;20.90;;
28836;SDS011;50669;50.982;11.022;2022-12-18T03:23:29;40.28;;;21.73;;
28836;SDS011;50669;50.982;11.022;2022-12-18T03:26:04;44.85;;;22.88;;
28836;SDS011;50669;50.982;11.022;2022-12-18T03:28:33;38.73;;;17.80;;
28836;SDS011;50669;50.982;11.022;2022-12-18T03:31:03;42.42;;;18.48;;
28836;SDS011;50669;50.982;11.022;2022-12-18T03:33:32;50.55;;;20.50;;
28836;SDS011;50669;50.982;11.022;2022-12-18T03:36:03;45.47;;;19.50;;
28836;SDS011;50669;50.982;11.022;2022-12-18T03:38:29;49.60;;;20.77;;
28836;SDS011;50669;50.982;11.022;2022-12-18T03:46:02;44.83;;;20.40;;
28836;SDS011;50669;50.982;11.022;2022-12-18T03:48:38;37.58;;;19.17;;
28836;SDS011;50669;50.982;11.022;2022-12-18T03:51:17;43.20;;;20.92;;
28836;SDS011;50669;50.982;11.022;2022-12-18T03:56:26;45.58;;;20.67;;
28836;SDS011;50669;50.982;11.022;2022-12-18T03:59:02;45.13;;;19.75;;
28836;SDS011;50669;50.982;11.022;2022-12-18T04:01:35;46.92;;;22.08;;
28836;SDS011;50669;50.982;11.022;2022-12-18T04:04:04;45.70;;;21.33;;
28836;SDS011;50669;50.982;11.022;2022-12-18T04:06:32;43.88;;;21.20;;
28836;SDS011;50669;50.982;11.022;2022-12-18T04:08:58;44.85;;;21.33;;
28836;SDS011;50669;50.982;11.022;2022-12-18T04:11:24;44.20;;;20.42;;
28836;SDS011;50669;50.982;11.022;2022-12-18T04:13:50;43.42;;;21.10;;
28836;SDS011;50669;50.982;11.022;2022-12-18T04:16:22;46.38;;;20.02;;
28836;SDS011;50669;50.982;11.022;2022-12-18T04:18:48;47.35;;;21.08;;
28836;SDS011;50669;50.982;11.022;2022-12-18T04:21:14;43.88;;;20.77;;
28836;SDS011;50669;50.982;11.022;2022-12-18T04:23:45;43.00;;;19.63;;
28836;SDS011;50669;50.982;11.022;2022-12-18T04:26:13;42.25;;;19.75;;
28836;SDS011;50669;50.982;11.022;2022-12-18T04:28:39;43.05;;;19.77;;
28836;SDS011;50669;50.982;11.022;2022-12-18T04:31:04;51.22;;;22.38;;
28836;SDS011;50669;50.982;11.022;2022-12-18T04:33:30;47.20;;;20.40;;
28836;SDS011;50669;50.982;11.022;2022-12-18T04:35:56;43.72;;;19.48;;
28836;SDS011;50669;50.982;11.022;2022-12-18T04:38:21;42.70;;;19.63;;
28836;SDS011;50669;50.982;11.022;2022-12-18T04:40:49;41.63;;;19.77;;
28836;SDS011;50669;50.982;11.022;2022-12-18T04:43:15;43.17;;;20.05;;
28836;SDS011;50669;50.982;11.022;2022-12-18T04:45:40;46.33;;;20.35;;
28836;SDS011;50669;50.982;11.022;2022-12-18T04:48:06;46.38;;;21.05;;
28836;SDS011;50669;50.982;11.022;2022-12-18T04:50:32;45.90;;;19.60;;
28836;SDS011;50669;50.982;11.022;2022-12-18T04:52:57;38.35;;;19.08;;
28836;SDS011;50669;50.982;11.022;2022-12-18T04:55:25;43.45;;;20.38;;
28836;SDS011;50669;50.982;11.022;2022-12-18T04:57:51;41.88;;;18.75;;
28836;SDS011;50669;50.982;11.022;2022-12-18T05:00:17;42.50;;;18.25;;
28836;SDS011;50669;50.982;11.022;2022-12-18T05:02:43;38.38;;;17.30;;
28836;SDS011;50669;50.982;11.022;2022-12-18T05:05:11;45.03;;;18.45;;
28836;SDS011;50669;50.982;11.022;2022-12-18T05:07:39;39.60;;;17.65;;
28836;SDS011;50669;50.982;11.022;2022-12-18T05:10:05;44.30;;;19.42;;
28836;SDS011;50669;50.982;11.022;2022-12-18T05:12:31;44.47;;;20.10;;
28836;SDS011;50669;50.982;11.022;2022-12-18T05:14:57;38.45;;;19.30;;
28836;SDS011;50669;50.982;11.022;2022-12-18T05:17:25;49.95;;;19.95;;
28836;SDS011;50669;50.982;11.022;2022-12-18T05:19:51;40.35;;;19.42;;
28836;SDS011;50669;50.982;11.022;2022-12-18T05:22:17;43.47;;;19.27;;
28836;SDS011;50669;50.982;11.022;2022-12-18T05:24:42;40.70;;;19.25;;
28836;SDS011;50669;50.982;11.022;2022-12-18T05:27:10;44.45;;;19.70;;
28836;SDS011;50669;50.982;11.022;2022-12-18T05:29:36;33.40;;;16.48;;
28836;SDS011;50669;50.982;11.022;2022-12-18T05:32:02;38.65;;;16.38;;
28836;SDS011;50669;50.982;11.022;2022-12-18T05:34:27;40.63;;;18.55;;
28836;SDS011;50669;50.982;11.022;2022-12-18T05:36:53;43.10;;;17.85;;
28836;SDS011;50669;50.982;11.022;2022-12-18T05:39:18;40.47;;;19.05;;
28836;SDS011;50669;50.982;11.022;2022-12-18T05:41:47;37.80;;;18.52;;
28836;SDS011;50669;50.982;11.022;2022-12-18T05:44:12;46.75;;;20.67;;
28836;SDS011;50669;50.982;11.022;2022-12-18T05:46:38;49.25;;;20.73;;
28836;SDS011;50669;50.982;11.022;2022-12-18T05:49:03;48.33;;;20.15;;
28836;SDS011;50669;50.982;11.022;2022-12-18T05:51:29;41.97;;;20.30;;
28836;SDS011;50669;50.982;11.022;2022-12-18T05:53:57;46.42;;;20.70;;
28836;SDS011;50669;50.982;11.022;2022-12-18T05:56:23;49.97;;;19.63;;
28836;SDS011;50669;50.982;11.022;2022-12-18T05:58:51;44.47;;;21.27;;
28836;SDS011;50669;50.982;11.022;2022-12-18T06:01:19;42.55;;;20.42;;
28836;SDS011;50669;50.982;11.022;2022-12-18T06:03:52;39.92;;;18.92;;
28836;SDS011;50669;50.982;11.022;2022-12-18T06:06:24;39.58;;;19.67;;
28836;SDS011;50669;50.982;11.022;2022-12-18T06:08:54;43.58;;;18.45;;
28836;SDS011;50669;50.982;11.022;2022-12-18T06:11:21;37.13;;;18.52;;
28836;SDS011;50669;50.982;11.022;2022-12-18T06:13:51;41.25;;;18.75;;
28836;SDS011;50669;50.982;11.022;2022-12-18T06:16:23;46.92;;;19.52;;
28836;SDS011;50669;50.982;11.022;2022-12-18T06:18:49;44.42;;;19.20;;
28836;SDS011;50669;50.982;11.022;2022-12-18T06:21:15;52.35;;;21.55;;
28836;SDS011;50669;50.982;11.022;2022-12-18T06:23:42;48.08;;;20.27;;
28836;SDS011;50669;50.982;11.022;2022-12-18T06:26:11;50.80;;;21.08;;
28836;SDS011;50669;50.982;11.022;2022-12-18T06:28:40;48.78;;;20.42;;
28836;SDS011;50669;50.982;11.022;2022-12-18T06:31:06;49.30;;;21.00;;
28836;SDS011;50669;50.982;11.022;2022-12-18T06:33:35;52.15;;;21.42;;
28836;SDS011;50669;50.982;11.022;2022-12-18T06:36:03;49.50;;;19.95;;
28836;SDS011;50669;50.982;11.022;2022-12-18T06:38:33;50.90;;;20.90;;
28836;SDS011;50669;50.982;11.022;2022-12-18T06:41:00;52.67;;;22.13;;
28836;SDS011;50669;50.982;11.022;2022-12-18T06:43:25;53.65;;;21.17;;
28836;SDS011;50669;50.982;11.022;2022-12-18T06:45:57;51.67;;;21.00;;
28836;SDS011;50669;50.982;11.022;2022-12-18T06:48:24;51.47;;;19.80;;
28836;SDS011;50669;50.982;11.022;2022-12-18T06:50:49;46.20;;;19.58;;
28836;SDS011;50669;50.982;11.022;2022-12-18T06:53:20;46.78;;;20.48;;
28836;SDS011;50669;50.982;11.022;2022-12-18T06:55:48;54.63;;;21.60;;
28836;SDS011;50669;50.982;11.022;2022-12-18T06:58:14;45.33;;;19.67;;
28836;SDS011;50669;50.982;11.022;2022-12-18T07:00:42;43.55;;;18.48;;
28836;SDS011;50669;50.982;11.022;2022-12-18T07:03:08;45.97;;;18.63;;
28836;SDS011;50669;50.982;11.022;2022-12-18T07:05:39;42.53;;;17.35;;
28836;SDS011;50669;50.982;11.022;2022-12-18T07:08:05;43.58;;;19.23;;
28836;SDS011;50669;50.982;11.022;2022-12-18T07:10:31;44.75;;;19.95;;
28836;SDS011;50669;50.982;11.022;2022-12-18T07:12:57;46.03;;;20.05;;
28836;SDS011;50669;50.982;11.022;2022-12-18T07:15:22;45.42;;;19.30;;
28836;SDS011;50669;50.982;11.022;2022-12-18T07:17:48;49.80;;;20.75;;
28836;SDS011;50669;50.982;11.022;2022-12-18T07:20:14;43.10;;;19.63;;
28836;SDS011;50669;50.982;11.022;2022-12-18T07:22:39;44.40;;;20.20;;
28836;SDS011;50669;50.982;11.022;2022-12-18T07:25:05;43.03;;;18.88;;
28836;SDS011;50669;50.982;11.022;2022-12-18T07:27:34;42.50;;;18.92;;
28836;SDS011;50669;50.982;11.022;2022-12-18T07:30:00;39.90;;;18.98;;
28836;SDS011;50669;50.982;11.022;2022-12-18T07:32:26;62.65;;;24.25;;
28836;SDS011;50669;50.982;11.022;2022-12-18T07:34:51;50.00;;;20.02;;
28836;SDS011;50669;50.982;11.022;2022-12-18T07:37:19;42.20;;;19.00;;
28836;SDS011;50669;50.982;11.022;2022-12-18T07:39:45;43.85;;;19.05;;
28836;SDS011;50669;50.982;11.022;2022-12-18T07:42:11;45.30;;;18.13;;
28836;SDS011;50669;50.982;11.022;2022-12-18T07:44:55;50.58;;;22.08;;
28836;SDS011;50669;50.982;11.022;2022-12-18T07:47:23;51.83;;;21.08;;
28836;SDS011;50669;50.982;11.022;2022-12-18T07:49:51;43.35;;;19.33;;
28836;SDS011;50669;50.982;11.022;2022-12-18T07:52:19;54.50;;;22.85;;
28836;SDS011;50669;50.982;11.022;2022-12-18T07:54:47;54.50;;;21.45;;
28836;SDS011;50669;50.982;11.022;2022-12-18T07:57:16;48.50;;;22.02;;
28836;SDS011;50669;50.982;11.022;2022-12-18T07:59:42;44.63;;;21.15;;
28836;SDS011;50669;50.982;11.022;2022-12-18T08:02:10;43.53;;;19.45;;
28836;SDS011;50669;50.982;11.022;2022-12-18T08:04:35;64.00;;;22.27;;
28836;SDS011;50669;50.982;11.022;2022-12-18T08:07:01;46.90;;;21.05;;
28836;SDS011;50669;50.982;11.022;2022-12-18T08:09:27;60.25;;;22.58;;
28836;SDS011;50669;50.982;11.022;2022-12-18T08:11:52;56.60;;;22.17;;
28836;SDS011;50669;50.982;11.022;2022-12-18T08:14:18;54.25;;;23.40;;
28836;SDS011;50669;50.982;11.022;2022-12-18T08:16:44;63.10;;;25.33;;
28836;SDS011;50669;50.982;11.022;2022-12-18T08:19:09;49.45;;;19.60;;
28836;SDS011;50669;50.982;11.022;2022-12-18T08:21:35;41.60;;;19.27;;
28836;SDS011;50669;50.982;11.022;2022-12-18T08:24:01;33.88;;;15.50;;
28836;SDS011;50669;50.982;11.022;2022-12-18T08:26:30;39.35;;;16.33;;
28836;SDS011;50669;50.982;11.022;2022-12-18T08:28:56;36.10;;;17.05;;
28836;SDS011;50669;50.982;11.022;2022-12-18T08:31:26;35.30;;;16.98;;
28836;SDS011;50669;50.982;11.022;2022-12-18T08:33:53;38.17;;;18.30;;
28836;SDS011;50669;50.982;11.022;2022-12-18T08:36:19;43.85;;;18.08;;
28836;SDS011;50669;50.982;11.022;2022-12-18T08:38:46;37.85;;;17.67;;
28836;SDS011;50669;50.982;11.022;2022-12-18T08:41:14;43.92;;;19.33;;
28836;SDS011;50669;50.982;11.022;2022-12-18T08:43:41;44.25;;;18.70;;
28836;SDS011;50669;50.982;11.022;2022-12-18T08:46:25;40.97;;;18.05;;
28836;SDS011;50669;50.982;11.022;2022-12-18T08:48:54;40.15;;;17.77;;
28836;SDS011;50669;50.982;11.022;2022-12-18T08:51:21;44.75;;;20.60;;
28836;SDS011;50669;50.982;11.022;2022-12-18T08:53:48;57.30;;;20.25;;
28836;SDS011;50669;50.982;11.022;2022-12-18T08:56:14;42.17;;;17.90;;
28836;SDS011;50669;50.982;11.022;2022-12-18T08:58:40;42.78;;;17.65;;
28836;SDS011;50669;50.982;11.022;2022-12-18T09:01:07;41.60;;;18.27;;
28836;SDS011;50669;50.982;11.022;2022-12-18T09:03:35;39.38;;;17.50;;
28836;SDS011;50669;50.982;11.022;2022-12-18T09:06:00;39.08;;;16.90;;
28836;SDS011;50669;50.982;11.022;2022-12-18T09:08:29;40.95;;;17.77;;
28836;SDS011;50669;50.982;11.022;2022-12-18T09:10:57;42.75;;;19.50;;
28836;SDS011;50669;50.982;11.022;2022-12-18T09:13:25;40.67;;;18.75;;
28836;SDS011;50669;50.982;11.022;2022-12-18T09:15:52;50.47;;;20.27;;
28836;SDS011;50669;50.982;11.022;2022-12-18T09:18:24;52.95;;;21.50;;
28836;SDS011;50669;50.982;11.022;2022-12-18T09:20:52;46.95;;;20.45;;
28836;SDS011;50669;50.982;11.022;2022-12-18T09:23:18;47.80;;;21.17;;
28836;SDS011;50669;50.982;11.022;2022-12-18T09:25:46;61.67;;;20.17;;
28836;SDS011;50669;50.982;11.022;2022-12-18T09:28:13;54.97;;;22.52;;
28836;SDS011;50669;50.982;11.022;2022-12-18T09:30:41;41.72;;;18.95;;
28836;SDS011;50669;50.982;11.022;2022-12-18T09:33:09;46.78;;;21.38;;
28836;SDS011;50669;50.982;11.022;2022-12-18T09:35:38;51.58;;;22.95;;
28836;SDS011;50669;50.982;11.022;2022-12-18T09:38:05;54.58;;;22.88;;
28836;SDS011;50669;50.982;11.022;2022-12-18T09:40:35;51.58;;;23.55;;
28836;SDS011;50669;50.982;11.022;2022-12-18T09:43:05;52.25;;;22.38;;
28836;SDS011;50669;50.982;11.022;2022-12-18T09:45:40;55.90;;;23.55;;
28836;SDS011;50669;50.982;11.022;2022-12-18T09:48:16;72.85;;;25.55;;
28836;SDS011;50669;50.982;11.022;2022-12-18T09:50:48;58.17;;;21.98;;
28836;SDS011;50669;50.982;11.022;2022-12-18T09:53:19;59.60;;;24.13;;
28836;SDS011;50669;50.982;11.022;2022-12-18T09:55:49;58.67;;;25.38;;
28836;SDS011;50669;50.982;11.022;2022-12-18T10:01:09;64.10;;;25.38;;
28836;SDS011;50669;50.982;11.022;2022-12-18T10:03:37;54.55;;;24.50;;
28836;SDS011;50669;50.982;11.022;2022-12-18T10:06:19;60.35;;;25.33;;
28836;SDS011;50669;50.982;11.022;2022-12-18T10:17:36;59.47;;;24.60;;
28836;SDS011;50669;50.982;11.022;2022-12-18T10:28:18;50.78;;;25.05;;
28836;SDS011;50669;50.982;11.022;2022-12-18T10:30:45;45.45;;;25.25;;
28836;SDS011;50669;50.982;11.022;2022-12-18T10:33:19;45.67;;;24.05;;
28836;SDS011;50669;50.982;11.022;2022-12-18T10:35:47;56.65;;;26.48;;
28836;SDS011;50669;50.982;11.022;2022-12-18T10:43:16;47.53;;;23.63;;
28836;SDS011;50669;50.982;11.022;2022-12-18T10:48:36;40.17;;;22.42;;
28836;SDS011;50669;50.982;11.022;2022-12-18T10:51:02;42.10;;;21.95;;
28836;SDS011;50669;50.982;11.022;2022-12-18T10:53:29;41.03;;;21.80;;
28836;SDS011;50669;50.982;11.022;2022-12-18T10:55:59;43.60;;;19.67;;
28836;SDS011;50669;50.982;11.022;2022-12-18T10:58:31;46.25;;;20.85;;
28836;SDS011;50669;50.982;11.022;2022-12-18T11:01:14;36.30;;;20.05;;
28836;SDS011;50669;50.982;11.022;2022-12-18T11:06:11;42.63;;;21.48;;
28836;SDS011;50669;50.982;11.022;2022-12-18T11:08:43;97.18;;;28.02;;
28836;SDS011;50669;50.982;11.022;2022-12-18T11:11:22;38.13;;;20.00;;
28836;SDS011;50669;50.982;11.022;2022-12-18T11:13:59;41.17;;;21.30;;
28836;SDS011;50669;50.982;11.022;2022-12-18T11:16:29;42.20;;;22.23;;
28836;SDS011;50669;50.982;11.022;2022-12-18T11:19:08;60.17;;;25.73;;
28836;SDS011;50669;50.982;11.022;2022-12-18T11:21:54;50.60;;;23.98;;
28836;SDS011;50669;50.982;11.022;2022-12-18T11:27:03;46.53;;;24.45;;
28836;SDS011;50669;50.982;11.022;2022-12-18T11:29:32;57.33;;;24.83;;
28836;SDS011;50669;50.982;11.022;2022-12-18T11:34:41;51.25;;;24.17;;
28836;SDS011;50669;50.982;11.022;2022-12-18T11:37:10;55.42;;;25.40;;
28836;SDS011;50669;50.982;11.022;2022-12-18T11:39:45;65.35;;;26.13;;
28836;SDS011;50669;50.982;11.022;2022-12-18T11:47:43;52.92;;;24.27;;
28836;SDS011;50669;50.982;11.022;2022-12-18T11:52:43;62.17;;;24.27;;
28836;SDS011;50669;50.982;11.022;2022-12-18T11:57:55;56.70;;;24.50;;
28836;SDS011;50669;50.982;11.022;2022-12-18T12:00:21;46.80;;;24.48;;
28836;SDS011;50669;50.982;11.022;2022-12-18T12:11:12;49.85;;;25.30;;
28836;SDS011;50669;50.982;11.022;2022-12-18T12:19:51;48.30;;;24.50;;
28836;SDS011;50669;50.982;11.022;2022-12-18T12:39:20;46.63;;;23.42;;
28836;SDS011;50669;50.982;11.022;2022-12-18T12:41:52;52.90;;;24.92;;
28836;SDS011;50669;50.982;11.022;2022-12-18T12:44:42;58.33;;;25.17;;
28836;SDS011;50669;50.982;11.022;2022-12-18T12:47:23;54.63;;;24.65;;
28836;SDS011;50669;50.982;11.022;2022-12-18T12:49:50;55.08;;;24.83;;
28836;SDS011;50669;50.982;11.022;2022-12-18T12:54:53;52.72;;;24.38;;
28836;SDS011;50669;50.982;11.022;2022-12-18T12:57:43;54.00;;;25.73;;
28836;SDS011;50669;50.982;11.022;2022-12-18T13:00:14;75.03;;;26.70;;
28836;SDS011;50669;50.982;11.022;2022-12-18T13:15:43;54.67;;;25.92;;
28836;SDS011;50669;50.982;11.022;2022-12-18T13:20:36;47.47;;;24.15;;
28836;SDS011;50669;50.982;11.022;2022-12-18T13:31:13;53.33;;;24.00;;
28836;SDS011;50669;50.982;11.022;2022-12-18T13:34:22;55.90;;;24.80;;
28836;SDS011;50669;50.982;11.022;2022-12-18T13:36:49;50.35;;;23.60;;
28836;SDS011;50669;50.982;11.022;2022-12-18T13:41:46;55.50;;;25.90;;
28836;SDS011;50669;50.982;11.022;2022-12-18T13:46:58;58.35;;;26.20;;
28836;SDS011;50669;50.982;11.022;2022-12-18T13:49:37;72.90;;;28.70;;
28836;SDS011;50669;50.982;11.022;2022-12-18T13:54:51;51.38;;;25.38;;
28836;SDS011;50669;50.982;11.022;2022-12-18T13:57:37;57.70;;;25.92;;
28836;SDS011;50669;50.982;11.022;2022-12-18T14:02:47;55.72;;;24.48;;
28836;SDS011;50669;50.982;11.022;2022-12-18T14:05:47;63.42;;;27.48;;
28836;SDS011;50669;50.982;11.022;2022-12-18T14:08:15;59.28;;;26.77;;
28836;SDS011;50669;50.982;11.022;2022-12-18T14:10:41;89.32;;;35.85;;
28836;SDS011;50669;50.982;11.022;2022-12-18T14:13:10;78.60;;;31.23;;
28836;SDS011;50669;50.982;11.022;2022-12-18T14:15:43;66.88;;;31.30;;
28836;SDS011;50669;50.982;11.022;2022-12-18T14:20:46;64.40;;;27.08;;
28836;SDS011;50669;50.982;11.022;2022-12-18T14:25:54;59.42;;;26.85;;
28836;SDS011;50669;50.982;11.022;2022-12-18T14:28:23;67.78;;;27.25;;
28836;SDS011;50669;50.982;11.022;2022-12-18T14:30:49;59.55;;;28.13;;
28836;SDS011;50669;50.982;11.022;2022-12-18T14:33:33;62.10;;;27.55;;
28836;SDS011;50669;50.982;11.022;2022-12-18T14:43:26;61.63;;;26.92;;
28836;SDS011;50669;50.982;11.022;2022-12-18T14:45:53;66.97;;;27.95;;
28836;SDS011;50669;50.982;11.022;2022-12-18T14:48:21;66.57;;;26.83;;
28836;SDS011;50669;50.982;11.022;2022-12-18T14:51:03;63.78;;;28.95;;
28836;SDS011;50669;50.982;11.022;2022-12-18T14:53:33;61.08;;;27.67;;
28836;SDS011;50669;50.982;11.022;2022-12-18T14:56:02;61.72;;;28.13;;
28836;SDS011;50669;50.982;11.022;2022-12-18T14:58:35;64.63;;;29.27;;
28836;SDS011;50669;50.982;11.022;2022-12-18T15:01:01;77.57;;;32.20;;
28836;SDS011;50669;50.982;11.022;2022-12-18T15:03:27;60.33;;;28.48;;
28836;SDS011;50669;50.982;11.022;2022-12-18T15:05:52;67.70;;;28.27;;
28836;SDS011;50669;50.982;11.022;2022-12-18T15:08:31;61.72;;;27.25;;
28836;SDS011;50669;50.982;11.022;2022-12-18T15:11:00;60.47;;;26.02;;
28836;SDS011;50669;50.982;11.022;2022-12-18T15:13:26;94.47;;;31.27;;
28836;SDS011;50669;50.982;11.022;2022-12-18T15:15:52;70.22;;;29.67;;
28836;SDS011;50669;50.982;11.022;2022-12-18T15:18:23;65.38;;;27.35;;
28836;SDS011;50669;50.982;11.022;2022-12-18T15:20:58;70.22;;;29.02;;
28836;SDS011;50669;50.982;11.022;2022-12-18T15:26:10;63.05;;;26.70;;
28836;SDS011;50669;50.982;11.022;2022-12-18T15:36:18;65.40;;;30.85;;
28836;SDS011;50669;50.982;11.022;2022-12-18T15:38:49;68.40;;;30.20;;
28836;SDS011;50669;50.982;11.022;2022-12-18T15:41:18;72.20;;;30.45;;
28836;SDS011;50669;50.982;11.022;2022-12-18T15:43:46;62.85;;;28.00;;
28836;SDS011;50669;50.982;11.022;2022-12-18T15:46:15;69.32;;;30.77;;
28836;SDS011;50669;50.982;11.022;2022-12-18T15:48:45;68.50;;;28.50;;
28836;SDS011;50669;50.982;11.022;2022-12-18T15:53:58;64.72;;;28.77;;
28836;SDS011;50669;50.982;11.022;2022-12-18T15:56:26;69.35;;;29.17;;
28836;SDS011;50669;50.982;11.022;2022-12-18T15:59:12;71.60;;;29.70;;
28836;SDS011;50669;50.982;11.022;2022-12-18T16:01:39;80.07;;;29.52;;
28836;SDS011;50669;50.982;11.022;2022-12-18T16:04:06;71.00;;;31.55;;
28836;SDS011;50669;50.982;11.022;2022-12-18T16:06:34;69.45;;;30.33;;
28836;SDS011;50669;50.982;11.022;2022-12-18T16:08:59;69.85;;;30.02;;
28836;SDS011;50669;50.982;11.022;2022-12-18T16:11:28;64.35;;;28.90;;
28836;SDS011;50669;50.982;11.022;2022-12-18T16:14:17;61.65;;;27.60;;
28836;SDS011;50669;50.982;11.022;2022-12-18T16:16:54;64.78;;;27.35;;
28836;SDS011;50669;50.982;11.022;2022-12-18T16:19:23;55.28;;;25.30;;
28836;SDS011;50669;50.982;11.022;2022-12-18T16:21:53;59.50;;;26.75;;
28836;SDS011;50669;50.982;11.022;2022-12-18T16:24:21;67.07;;;27.80;;
28836;SDS011;50669;50.982;11.022;2022-12-18T16:26:48;62.80;;;27.80;;
28836;SDS011;50669;50.982;11.022;2022-12-18T16:29:17;60.22;;;27.02;;
28836;SDS011;50669;50.982;11.022;2022-12-18T16:31:44;65.38;;;27.80;;
28836;SDS011;50669;50.982;11.022;2022-12-18T16:34:10;62.42;;;28.45;;
28836;SDS011;50669;50.982;11.022;2022-12-18T16:36:36;67.43;;;29.23;;
28836;SDS011;50669;50.982;11.022;2022-12-18T16:39:04;67.40;;;28.98;;
28836;SDS011;50669;50.982;11.022;2022-12-18T16:41:30;66.43;;;28.40;;
28836;SDS011;50669;50.982;11.022;2022-12-18T16:43:59;66.57;;;29.48;;
28836;SDS011;50669;50.982;11.022;2022-12-18T16:46:25;72.28;;;30.00;;
28836;SDS011;50669;50.982;11.022;2022-12-18T16:48:50;77.18;;;29.80;;
28836;SDS011;50669;50.982;11.022;2022-12-18T16:51:16;65.40;;;29.42;;
28836;SDS011;50669;50.982;11.022;2022-12-18T16:53:42;63.95;;;29.63;;
28836;SDS011;50669;50.982;11.022;2022-12-18T16:56:07;66.05;;;27.98;;
28836;SDS011;50669;50.982;11.022;2022-12-18T16:58:33;57.70;;;26.65;;
28836;SDS011;50669;50.982;11.022;2022-12-18T17:00:59;77.85;;;29.95;;
28836;SDS011;50669;50.982;11.022;2022-12-18T17:03:25;68.18;;;28.80;;
28836;SDS011;50669;50.982;11.022;2022-12-18T17:05:50;61.45;;;27.17;;
28836;SDS011;50669;50.982;11.022;2022-12-18T17:08:16;67.38;;;28.52;;
28836;SDS011;50669;50.982;11.022;2022-12-18T17:10:42;63.85;;;28.80;;
28836;SDS011;50669;50.982;11.022;2022-12-18T17:13:07;72.25;;;29.00;;
28836;SDS011;50669;50.982;11.022;2022-12-18T17:15:36;67.30;;;29.08;;
28836;SDS011;50669;50.982;11.022;2022-12-18T17:18:02;74.32;;;29.40;;
28836;SDS011;50669;50.982;11.022;2022-12-18T17:20:29;65.57;;;27.80;;